Terminal Aerodrome Forecast
Issued by NWS

Home | Current Version | Previous Version | Text Only | Print | Product List | Glossary On
Versions: 1 2 3 4 5 6 7 8 9 10 11 12 13 14 15 16 17 18 19 20
000
FTUS44 KOHX 120900 AAA
TAFCKV
TAF AMD
KCKV 120900Z 1209/1306 18003KT P6SM SCT250
      TEMPO 1209/1212 4SM HZ BR
     FM121800 21005KT P6SM BKN080=

USA.gov is the U.S. government's official web portal to all federal, state and local government web resources and services.